sensor_id;sensor_type;location;lat;lon;timestamp;pressure;altitude;pressure_sealevel;temperature
64394;BMP280;50712;49.506;10.400;2023-11-19T00:00:11;97934.22;;;9.68
64394;BMP280;50712;49.506;10.400;2023-11-19T00:00:42;97939.66;;;9.68
64394;BMP280;50712;49.506;10.400;2023-11-19T00:01:12;97935.00;;;9.68
64394;BMP280;50712;49.506;10.400;2023-11-19T00:01:43;97932.28;;;9.68
64394;BMP280;50712;49.506;10.400;2023-11-19T00:02:13;97935.72;;;9.69
64394;BMP280;50712;49.506;10.400;2023-11-19T00:02:43;97936.47;;;9.69
64394;BMP280;50712;49.506;10.400;2023-11-19T00:03:14;97934.50;;;9.70
64394;BMP280;50712;49.506;10.400;2023-11-19T00:03:44;97933.00;;;9.69
64394;BMP280;50712;49.506;10.400;2023-11-19T00:04:14;97931.03;;;9.69
64394;BMP280;50712;49.506;10.400;2023-11-19T00:04:45;97924.84;;;9.69
64394;BMP280;50712;49.506;10.400;2023-11-19T00:05:15;97924.84;;;9.69
64394;BMP280;50712;49.506;10.400;2023-11-19T00:05:45;97915.94;;;9.68
64394;BMP280;50712;49.506;10.400;2023-11-19T00:06:16;97922.88;;;9.69
64394;BMP280;50712;49.506;10.400;2023-11-19T00:06:46;97922.88;;;9.69
64394;BMP280;50712;49.506;10.400;2023-11-19T00:07:17;97922.88;;;9.69
64394;BMP280;50712;49.506;10.400;2023-11-19T00:07:47;97928.31;;;9.69
64394;BMP280;50712;49.506;10.400;2023-11-19T00:08:17;97922.13;;;9.69
64394;BMP280;50712;49.506;10.400;2023-11-19T00:08:48;97915.47;;;9.70
64394;BMP280;50712;49.506;10.400;2023-11-19T00:09:20;97918.97;;;9.70
64394;BMP280;50712;49.506;10.400;2023-11-19T00:09:50;97920.91;;;9.70
64394;BMP280;50712;49.506;10.400;2023-11-19T00:10:20;97924.09;;;9.68
64394;BMP280;50712;49.506;10.400;2023-11-19T00:10:51;97922.13;;;9.69
64394;BMP280;50712;49.506;10.400;2023-11-19T00:11:21;97917.91;;;9.68
64394;BMP280;50712;49.506;10.400;2023-11-19T00:11:51;97917.91;;;9.68
64394;BMP280;50712;49.506;10.400;2023-11-19T00:12:22;97922.13;;;9.69
64394;BMP280;50712;49.506;10.400;2023-11-19T00:12:52;97920.63;;;9.68
64394;BMP280;50712;49.506;10.400;2023-11-19T00:13:22;97929.53;;;9.68
64394;BMP280;50712;49.506;10.400;2023-11-19T00:13:53;97918.66;;;9.68
64394;BMP280;50712;49.506;10.400;2023-11-19T00:14:23;97922.13;;;9.69
64394;BMP280;50712;49.506;10.400;2023-11-19T00:14:55;97924.09;;;9.68
64394;BMP280;50712;49.506;10.400;2023-11-19T00:15:25;97922.13;;;9.69
64394;BMP280;50712;49.506;10.400;2023-11-19T00:15:56;97921.66;;;9.70
64394;BMP280;50712;49.506;10.400;2023-11-19T00:16:26;97921.66;;;9.70
64394;BMP280;50712;49.506;10.400;2023-11-19T00:16:58;97925.59;;;9.69
64394;BMP280;50712;49.506;10.400;2023-11-19T00:17:28;97925.59;;;9.69
64394;BMP280;50712;49.506;10.400;2023-11-19T00:17:58;97911.25;;;9.69
64394;BMP280;50712;49.506;10.400;2023-11-19T00:18:29;97920.91;;;9.70
64394;BMP280;50712;49.506;10.400;2023-11-19T00:18:59;97915.47;;;9.70
64394;BMP280;50712;49.506;10.400;2023-11-19T00:19:29;97917.41;;;9.69
64394;BMP280;50712;49.506;10.400;2023-11-19T00:19:59;97920.13;;;9.69
64394;BMP280;50712;49.506;10.400;2023-11-19T00:20:30;97918.66;;;9.68
64394;BMP280;50712;49.506;10.400;2023-11-19T00:21:00;97914.69;;;9.69
64394;BMP280;50712;49.506;10.400;2023-11-19T00:21:32;97916.69;;;9.69
64394;BMP280;50712;49.506;10.400;2023-11-19T00:22:03;97913.97;;;9.69
64394;BMP280;50712;49.506;10.400;2023-11-19T00:22:33;97914.69;;;9.69
64394;BMP280;50712;49.506;10.400;2023-11-19T00:23:04;97903.81;;;9.69
64394;BMP280;50712;49.506;10.400;2023-11-19T00:23:34;97913.97;;;9.69
64394;BMP280;50712;49.506;10.400;2023-11-19T00:24:04;97909.25;;;9.69
64394;BMP280;50712;49.506;10.400;2023-11-19T00:24:35;97909.25;;;9.69
64394;BMP280;50712;49.506;10.400;2023-11-19T00:25:06;97910.03;;;9.70
64394;BMP280;50712;49.506;10.400;2023-11-19T00:25:36;97908.53;;;9.69
64394;BMP280;50712;49.506;10.400;2023-11-19T00:26:08;97910.03;;;9.70
64394;BMP280;50712;49.506;10.400;2023-11-19T00:26:41;97910.03;;;9.70
64394;BMP280;50712;49.506;10.400;2023-11-19T00:27:11;97908.84;;;9.71
64394;BMP280;50712;49.506;10.400;2023-11-19T00:27:42;97911.56;;;9.71
64394;BMP280;50712;49.506;10.400;2023-11-19T00:28:14;97906.13;;;9.71
64394;BMP280;50712;49.506;10.400;2023-11-19T00:28:45;97903.41;;;9.71
64394;BMP280;50712;49.506;10.400;2023-11-19T00:29:15;97909.59;;;9.72
64394;BMP280;50712;49.506;10.400;2023-11-19T00:29:46;97906.88;;;9.72
64394;BMP280;50712;49.506;10.400;2023-11-19T00:30:16;97900.22;;;9.73
64394;BMP280;50712;49.506;10.400;2023-11-19T00:30:46;97901.44;;;9.72
64394;BMP280;50712;49.506;10.400;2023-11-19T00:31:16;97897.19;;;9.70
64394;BMP280;50712;49.506;10.400;2023-11-19T00:31:47;97897.97;;;9.71
64394;BMP280;50712;49.506;10.400;2023-11-19T00:32:17;97885.53;;;9.70
64394;BMP280;50712;49.506;10.400;2023-11-19T00:32:48;97887.50;;;9.69
64394;BMP280;50712;49.506;10.400;2023-11-19T00:33:19;97884.78;;;9.69
64394;BMP280;50712;49.506;10.400;2023-11-19T00:33:49;97890.97;;;9.70
64394;BMP280;50712;49.506;10.400;2023-11-19T00:34:19;97889.47;;;9.69
64394;BMP280;50712;49.506;10.400;2023-11-19T00:34:52;97883.31;;;9.68
64394;BMP280;50712;49.506;10.400;2023-11-19T00:35:22;97889.47;;;9.69
64394;BMP280;50712;49.506;10.400;2023-11-19T00:35:53;97896.44;;;9.70
64394;BMP280;50712;49.506;10.400;2023-11-19T00:36:23;97887.50;;;9.69
64394;BMP280;50712;49.506;10.400;2023-11-19T00:36:54;97887.50;;;9.69
64394;BMP280;50712;49.506;10.400;2023-11-19T00:37:25;97896.44;;;9.70
64394;BMP280;50712;49.506;10.400;2023-11-19T00:37:55;97897.19;;;9.70
64394;BMP280;50712;49.506;10.400;2023-11-19T00:38:26;97894.47;;;9.70
64394;BMP280;50712;49.506;10.400;2023-11-19T00:38:56;97900.69;;;9.71
64394;BMP280;50712;49.506;10.400;2023-11-19T00:39:26;97896.75;;;9.72
64394;BMP280;50712;49.506;10.400;2023-11-19T00:39:57;97897.50;;;9.73
64394;BMP280;50712;49.506;10.400;2023-11-19T00:40:28;97901.75;;;9.74
64394;BMP280;50712;49.506;10.400;2023-11-19T00:40:58;97899.81;;;9.74
64394;BMP280;50712;49.506;10.400;2023-11-19T00:41:29;97898.63;;;9.75
64394;BMP280;50712;49.506;10.400;2023-11-19T00:41:59;97893.91;;;9.76
64394;BMP280;50712;49.506;10.400;2023-11-19T00:42:29;97892.72;;;9.77
64394;BMP280;50712;49.506;10.400;2023-11-19T00:43:00;97898.16;;;9.77
64394;BMP280;50712;49.506;10.400;2023-11-19T00:43:30;97896.22;;;9.77
64394;BMP280;50712;49.506;10.400;2023-11-19T00:44:00;97887.28;;;9.77
64394;BMP280;50712;49.506;10.400;2023-11-19T00:44:31;97888.06;;;9.77
64394;BMP280;50712;49.506;10.400;2023-11-19T00:45:01;97882.63;;;9.77
64394;BMP280;50712;49.506;10.400;2023-11-19T00:45:31;97886.53;;;9.76
64394;BMP280;50712;49.506;10.400;2023-11-19T00:46:02;97884.56;;;9.77
64394;BMP280;50712;49.506;10.400;2023-11-19T00:46:33;97889.25;;;9.76
64394;BMP280;50712;49.506;10.400;2023-11-19T00:47:03;97890.00;;;9.77
64394;BMP280;50712;49.506;10.400;2023-11-19T00:47:35;97886.53;;;9.76
64394;BMP280;50712;49.506;10.400;2023-11-19T00:48:05;97886.53;;;9.76
64394;BMP280;50712;49.506;10.400;2023-11-19T00:48:35;97890.00;;;9.77
64394;BMP280;50712;49.506;10.400;2023-11-19T00:49:06;97881.09;;;9.76
64394;BMP280;50712;49.506;10.400;2023-11-19T00:49:36;97885.34;;;9.77
64394;BMP280;50712;49.506;10.400;2023-11-19T00:50:07;97890.78;;;9.77
64394;BMP280;50712;49.506;10.400;2023-11-19T00:50:41;97883.38;;;9.78
64394;BMP280;50712;49.506;10.400;2023-11-19T00:51:14;97895.75;;;9.79
64394;BMP280;50712;49.506;10.400;2023-11-19T00:51:45;97885.63;;;9.79
64394;BMP280;50712;49.506;10.400;2023-11-19T00:52:16;97885.19;;;9.81
64394;BMP280;50712;49.506;10.400;2023-11-19T00:52:46;97886.38;;;9.80
64394;BMP280;50712;49.506;10.400;2023-11-19T00:53:17;97880.94;;;9.80
64394;BMP280;50712;49.506;10.400;2023-11-19T00:53:47;97886.38;;;9.80
64394;BMP280;50712;49.506;10.400;2023-11-19T00:54:18;97885.63;;;9.79
64394;BMP280;50712;49.506;10.400;2023-11-19T00:54:48;97884.84;;;9.79
64394;BMP280;50712;49.506;10.400;2023-11-19T00:55:18;97884.84;;;9.79
64394;BMP280;50712;49.506;10.400;2023-11-19T00:55:49;97882.91;;;9.79
64394;BMP280;50712;49.506;10.400;2023-11-19T00:56:19;97880.19;;;9.79
64394;BMP280;50712;49.506;10.400;2023-11-19T00:56:50;97885.19;;;9.81
64394;BMP280;50712;49.506;10.400;2023-11-19T00:57:22;97882.47;;;9.81
64394;BMP280;50712;49.506;10.400;2023-11-19T00:57:54;97884.44;;;9.80
64394;BMP280;50712;49.506;10.400;2023-11-19T00:58:26;97882.47;;;9.81
64394;BMP280;50712;49.506;10.400;2023-11-19T00:58:57;97881.25;;;9.82
64394;BMP280;50712;49.506;10.400;2023-11-19T00:59:27;97880.53;;;9.81
64394;BMP280;50712;49.506;10.400;2023-11-19T00:59:59;97881.25;;;9.82
64394;BMP280;50712;49.506;10.400;2023-11-19T01:00:29;97880.06;;;9.83
64394;BMP280;50712;49.506;10.400;2023-11-19T01:01:02;97879.31;;;9.82
64394;BMP280;50712;49.506;10.400;2023-11-19T01:01:33;97879.66;;;9.84
64394;BMP280;50712;49.506;10.400;2023-11-19T01:02:03;97882.78;;;9.83
64394;BMP280;50712;49.506;10.400;2023-11-19T01:02:36;97881.59;;;9.84
64394;BMP280;50712;49.506;10.400;2023-11-19T01:03:06;97881.59;;;9.84
64394;BMP280;50712;49.506;10.400;2023-11-19T01:03:37;97877.69;;;9.85
64394;BMP280;50712;49.506;10.400;2023-11-19T01:04:07;97876.16;;;9.84
64394;BMP280;50712;49.506;10.400;2023-11-19T01:04:38;97879.94;;;9.86
64394;BMP280;50712;49.506;10.400;2023-11-19T01:05:09;97879.19;;;9.86
64394;BMP280;50712;49.506;10.400;2023-11-19T01:05:40;97877.22;;;9.86
64394;BMP280;50712;49.506;10.400;2023-11-19T01:06:11;97871.03;;;9.86
64394;BMP280;50712;49.506;10.400;2023-11-19T01:06:41;97876.03;;;9.87
64394;BMP280;50712;49.506;10.400;2023-11-19T01:07:12;97874.50;;;9.86
64394;BMP280;50712;49.506;10.400;2023-11-19T01:07:42;97875.25;;;9.87
64394;BMP280;50712;49.506;10.400;2023-11-19T01:08:13;97872.53;;;9.87
64394;BMP280;50712;49.506;10.400;2023-11-19T01:08:44;97875.25;;;9.87
64394;BMP280;50712;49.506;10.400;2023-11-19T01:09:15;97869.81;;;9.87
64394;BMP280;50712;49.506;10.400;2023-11-19T01:09:45;97866.34;;;9.86
64394;BMP280;50712;49.506;10.400;2023-11-19T01:10:16;97874.50;;;9.86
64394;BMP280;50712;49.506;10.400;2023-11-19T01:10:46;97872.53;;;9.87
64394;BMP280;50712;49.506;10.400;2023-11-19T01:11:20;97877.22;;;9.86
64394;BMP280;50712;49.506;10.400;2023-11-19T01:11:51;97873.75;;;9.86
64394;BMP280;50712;49.506;10.400;2023-11-19T01:12:22;97876.47;;;9.86
64394;BMP280;50712;49.506;10.400;2023-11-19T01:12:52;97882.66;;;9.86
64394;BMP280;50712;49.506;10.400;2023-11-19T01:13:22;97877.22;;;9.86
64394;BMP280;50712;49.506;10.400;2023-11-19T01:13:53;97875.72;;;9.85
64394;BMP280;50712;49.506;10.400;2023-11-19T01:14:23;97879.94;;;9.86
64394;BMP280;50712;49.506;10.400;2023-11-19T01:14:53;97872.53;;;9.87
64394;BMP280;50712;49.506;10.400;2023-11-19T01:15:26;97877.97;;;9.87
64394;BMP280;50712;49.506;10.400;2023-11-19T01:15:56;97884.19;;;9.87
64394;BMP280;50712;49.506;10.400;2023-11-19T01:16:27;97877.97;;;9.87
64394;BMP280;50712;49.506;10.400;2023-11-19T01:16:58;97876.03;;;9.87
64394;BMP280;50712;49.506;10.400;2023-11-19T01:17:28;97876.78;;;9.88
64394;BMP280;50712;49.506;10.400;2023-11-19T01:18:01;97872.53;;;9.87
64394;BMP280;50712;49.506;10.400;2023-11-19T01:18:36;97865.91;;;9.88
64394;BMP280;50712;49.506;10.400;2023-11-19T01:19:06;97878.31;;;9.89
64394;BMP280;50712;49.506;10.400;2023-11-19T01:19:37;97869.38;;;9.88
64394;BMP280;50712;49.506;10.400;2023-11-19T01:20:08;97871.34;;;9.88
64394;BMP280;50712;49.506;10.400;2023-11-19T01:20:42;97871.34;;;9.88
64394;BMP280;50712;49.506;10.400;2023-11-19T01:21:13;97876.03;;;9.87
64394;BMP280;50712;49.506;10.400;2023-11-19T01:21:44;97874.06;;;9.88
64394;BMP280;50712;49.506;10.400;2023-11-19T01:22:15;97865.91;;;9.88
64394;BMP280;50712;49.506;10.400;2023-11-19T01:22:45;97863.94;;;9.88
64394;BMP280;50712;49.506;10.400;2023-11-19T01:23:15;97867.41;;;9.89
64394;BMP280;50712;49.506;10.400;2023-11-19T01:23:46;97854.25;;;9.87
64394;BMP280;50712;49.506;10.400;2023-11-19T01:24:17;97856.97;;;9.87
64394;BMP280;50712;49.506;10.400;2023-11-19T01:24:48;97858.16;;;9.86
64394;BMP280;50712;49.506;10.400;2023-11-19T01:25:18;97858.94;;;9.87
64394;BMP280;50712;49.506;10.400;2023-11-19T01:25:48;97855.44;;;9.86
64394;BMP280;50712;49.506;10.400;2023-11-19T01:26:19;97856.22;;;9.87
64394;BMP280;50712;49.506;10.400;2023-11-19T01:26:49;97859.38;;;9.85
64394;BMP280;50712;49.506;10.400;2023-11-19T01:27:19;97860.16;;;9.86
64394;BMP280;50712;49.506;10.400;2023-11-19T01:27:50;97859.38;;;9.85
64394;BMP280;50712;49.506;10.400;2023-11-19T01:28:20;97854.72;;;9.86
64394;BMP280;50712;49.506;10.400;2023-11-19T01:28:50;97852.72;;;9.86
64394;BMP280;50712;49.506;10.400;2023-11-19T01:29:22;97844.56;;;9.86
64394;BMP280;50712;49.506;10.400;2023-11-19T01:29:53;97848.81;;;9.87
64394;BMP280;50712;49.506;10.400;2023-11-19T01:30:23;97842.59;;;9.87
64394;BMP280;50712;49.506;10.400;2023-11-19T01:30:54;97841.84;;;9.86
64394;BMP280;50712;49.506;10.400;2023-11-19T01:31:24;97839.13;;;9.86
64394;BMP280;50712;49.506;10.400;2023-11-19T01:31:55;97839.88;;;9.87
64394;BMP280;50712;49.506;10.400;2023-11-19T01:32:25;97836.41;;;9.86
64394;BMP280;50712;49.506;10.400;2023-11-19T01:32:55;97836.41;;;9.86
64394;BMP280;50712;49.506;10.400;2023-11-19T01:33:26;97835.66;;;9.86
64394;BMP280;50712;49.506;10.400;2023-11-19T01:33:58;97848.06;;;9.87
64394;BMP280;50712;49.506;10.400;2023-11-19T01:34:28;97838.38;;;9.86
64394;BMP280;50712;49.506;10.400;2023-11-19T01:34:58;97834.44;;;9.87
64394;BMP280;50712;49.506;10.400;2023-11-19T01:35:29;97831.72;;;9.87
64394;BMP280;50712;49.506;10.400;2023-11-19T01:35:59;97832.50;;;9.87
64394;BMP280;50712;49.506;10.400;2023-11-19T01:36:29;97820.84;;;9.87
64394;BMP280;50712;49.506;10.400;2023-11-19T01:37:00;97819.66;;;9.88
64394;BMP280;50712;49.506;10.400;2023-11-19T01:37:30;97825.84;;;9.88
64394;BMP280;50712;49.506;10.400;2023-11-19T01:38:02;97823.09;;;9.88
64394;BMP280;50712;49.506;10.400;2023-11-19T01:38:32;97820.38;;;9.88
64394;BMP280;50712;49.506;10.400;2023-11-19T01:39:03;97814.53;;;9.90
64394;BMP280;50712;49.506;10.400;2023-11-19T01:39:36;97810.28;;;9.89
64394;BMP280;50712;49.506;10.400;2023-11-19T01:40:06;97811.03;;;9.89
64394;BMP280;50712;49.506;10.400;2023-11-19T01:40:40;97811.81;;;9.90
64394;BMP280;50712;49.506;10.400;2023-11-19T01:41:11;97803.63;;;9.90
64394;BMP280;50712;49.506;10.400;2023-11-19T01:41:41;97805.16;;;9.91
64394;BMP280;50712;49.506;10.400;2023-11-19T01:42:12;97805.16;;;9.91
64394;BMP280;50712;49.506;10.400;2023-11-19T01:42:42;97807.13;;;9.90
64394;BMP280;50712;49.506;10.400;2023-11-19T01:43:30;97803.19;;;9.91
64394;BMP280;50712;49.506;10.400;2023-11-19T01:44:01;97803.94;;;9.92
64394;BMP280;50712;49.506;10.400;2023-11-19T01:44:31;97803.19;;;9.91
64394;BMP280;50712;49.506;10.400;2023-11-19T01:45:02;97810.16;;;9.92
64394;BMP280;50712;49.506;10.400;2023-11-19T01:45:33;97823.00;;;9.92
64394;BMP280;50712;49.506;10.400;2023-11-19T01:46:04;97817.91;;;9.94
64394;BMP280;50712;49.506;10.400;2023-11-19T01:46:36;97816.38;;;9.93
64394;BMP280;50712;49.506;10.400;2023-11-19T01:47:07;97817.91;;;9.94
64394;BMP280;50712;49.506;10.400;2023-11-19T01:47:38;97815.19;;;9.94
64394;BMP280;50712;49.506;10.400;2023-11-19T01:48:10;97815.94;;;9.94
64394;BMP280;50712;49.506;10.400;2023-11-19T01:48:45;97815.19;;;9.94
64394;BMP280;50712;49.506;10.400;2023-11-19T01:49:16;97819.41;;;9.95
64394;BMP280;50712;49.506;10.400;2023-11-19T01:49:48;97815.47;;;9.96
64394;BMP280;50712;49.506;10.400;2023-11-19T01:50:19;97815.94;;;9.94
64394;BMP280;50712;49.506;10.400;2023-11-19T01:50:50;97815.47;;;9.96
64394;BMP280;50712;49.506;10.400;2023-11-19T01:51:22;97823.63;;;9.96
64394;BMP280;50712;49.506;10.400;2023-11-19T01:51:53;97828.31;;;9.95
64394;BMP280;50712;49.506;10.400;2023-11-19T01:52:24;97818.94;;;9.96
64394;BMP280;50712;49.506;10.400;2023-11-19T01:52:55;97824.38;;;9.96
64394;BMP280;50712;49.506;10.400;2023-11-19T01:53:30;97819.72;;;9.97
64394;BMP280;50712;49.506;10.400;2023-11-19T01:54:02;97819.72;;;9.97
64394;BMP280;50712;49.506;10.400;2023-11-19T01:54:33;97823.19;;;9.97
64394;BMP280;50712;49.506;10.400;2023-11-19T01:55:03;97824.72;;;9.98
64394;BMP280;50712;49.506;10.400;2023-11-19T01:55:34;97816.22;;;9.96
64394;BMP280;50712;49.506;10.400;2023-11-19T01:56:08;97818.50;;;9.98
64394;BMP280;50712;49.506;10.400;2023-11-19T01:56:39;97818.50;;;9.98
64394;BMP280;50712;49.506;10.400;2023-11-19T01:57:11;97826.66;;;9.98
64394;BMP280;50712;49.506;10.400;2023-11-19T01:57:42;97824.72;;;9.98
64394;BMP280;50712;49.506;10.400;2023-11-19T01:58:13;97820.78;;;9.99
64394;BMP280;50712;49.506;10.400;2023-11-19T01:58:43;97821.97;;;9.98
64394;BMP280;50712;49.506;10.400;2023-11-19T01:59:15;97818.06;;;9.99
64394;BMP280;50712;49.506;10.400;2023-11-19T01:59:46;97833.63;;;9.99
64394;BMP280;50712;49.506;10.400;2023-11-19T02:00:17;97821.97;;;9.98
64394;BMP280;50712;49.506;10.400;2023-11-19T02:00:49;97818.84;;;10.00
64394;BMP280;50712;49.506;10.400;2023-11-19T02:01:19;97821.97;;;9.98
64394;BMP280;50712;49.506;10.400;2023-11-19T02:01:50;97828.19;;;9.99
64394;BMP280;50712;49.506;10.400;2023-11-19T02:02:21;97820.78;;;9.99
64394;BMP280;50712;49.506;10.400;2023-11-19T02:02:52;97824.28;;;10.00
64394;BMP280;50712;49.506;10.400;2023-11-19T02:03:22;97825.03;;;10.00
64394;BMP280;50712;49.506;10.400;2023-11-19T02:03:55;97822.31;;;10.00
64394;BMP280;50712;49.506;10.400;2023-11-19T02:04:28;97822.31;;;10.00
64394;BMP280;50712;49.506;10.400;2023-11-19T02:04:59;97825.78;;;10.01
64394;BMP280;50712;49.506;10.400;2023-11-19T02:05:30;97828.50;;;10.01
64394;BMP280;50712;49.506;10.400;2023-11-19T02:06:02;97820.34;;;10.01
64394;BMP280;50712;49.506;10.400;2023-11-19T02:06:33;97830.03;;;10.02
64394;BMP280;50712;49.506;10.400;2023-11-19T02:07:04;97821.09;;;10.01
64394;BMP280;50712;49.506;10.400;2023-11-19T02:07:35;97822.63;;;10.02
64394;BMP280;50712;49.506;10.400;2023-11-19T02:08:05;97830.03;;;10.02
64394;BMP280;50712;49.506;10.400;2023-11-19T02:08:36;97824.59;;;10.02
64394;BMP280;50712;49.506;10.400;2023-11-19T02:09:08;97823.41;;;10.03
64394;BMP280;50712;49.506;10.400;2023-11-19T02:09:38;97826.13;;;10.03
64394;BMP280;50712;49.506;10.400;2023-11-19T02:10:08;97816.75;;;10.04
64394;BMP280;50712;49.506;10.400;2023-11-19T02:10:43;97815.22;;;10.03
64394;BMP280;50712;49.506;10.400;2023-11-19T02:11:13;97816.75;;;10.04
64394;BMP280;50712;49.506;10.400;2023-11-19T02:11:43;97812.03;;;10.04
64394;BMP280;50712;49.506;10.400;2023-11-19T02:12:14;97812.78;;;10.05
64394;BMP280;50712;49.506;10.400;2023-11-19T02:12:45;97810.84;;;10.05
64394;BMP280;50712;49.506;10.400;2023-11-19T02:13:16;97810.06;;;10.05
64394;BMP280;50712;49.506;10.400;2023-11-19T02:13:46;97812.78;;;10.05
64394;BMP280;50712;49.506;10.400;2023-11-19T02:14:17;97808.88;;;10.06
64394;BMP280;50712;49.506;10.400;2023-11-19T02:14:47;97815.09;;;10.06
64394;BMP280;50712;49.506;10.400;2023-11-19T02:15:18;97804.97;;;10.07
64394;BMP280;50712;49.506;10.400;2023-11-19T02:15:54;97803.44;;;10.06
64394;BMP280;50712;49.506;10.400;2023-11-19T02:16:25;97802.25;;;10.07
64394;BMP280;50712;49.506;10.400;2023-11-19T02:16:55;97800.25;;;10.07
64394;BMP280;50712;49.506;10.400;2023-11-19T02:17:26;97796.81;;;10.07
64394;BMP280;50712;49.506;10.400;2023-11-19T02:18:51;97808.78;;;10.09
64394;BMP280;50712;49.506;10.400;2023-11-19T02:19:22;97794.41;;;10.09
64394;BMP280;50712;49.506;10.400;2023-11-19T02:19:52;97808.78;;;10.09
64394;BMP280;50712;49.506;10.400;2023-11-19T02:20:23;97799.84;;;10.09
64394;BMP280;50712;49.506;10.400;2023-11-19T02:20:55;97804.84;;;10.10
64394;BMP280;50712;49.506;10.400;2023-11-19T02:21:26;97806.81;;;10.10
64394;BMP280;50712;49.506;10.400;2023-11-19T02:21:56;97808.31;;;10.11
64394;BMP280;50712;49.506;10.400;2023-11-19T02:22:27;97814.53;;;10.11
64394;BMP280;50712;49.506;10.400;2023-11-19T02:22:57;97802.09;;;10.10
64394;BMP280;50712;49.506;10.400;2023-11-19T02:23:28;97811.81;;;10.11
64394;BMP280;50712;49.506;10.400;2023-11-19T02:23:59;97811.03;;;10.11
64394;BMP280;50712;49.506;10.400;2023-11-19T02:24:31;97814.53;;;10.11
64394;BMP280;50712;49.506;10.400;2023-11-19T02:25:04;97808.31;;;10.11
64394;BMP280;50712;49.506;10.400;2023-11-19T02:25:37;97808.31;;;10.11
64394;BMP280;50712;49.506;10.400;2023-11-19T02:27:08;97805.91;;;10.13
64394;BMP280;50712;49.506;10.400;2023-11-19T02:27:46;97814.84;;;10.13
64394;BMP280;50712;49.506;10.400;2023-11-19T02:28:18;97811.34;;;10.13
64394;BMP280;50712;49.506;10.400;2023-11-19T02:28:49;97810.59;;;10.12
64394;BMP280;50712;49.506;10.400;2023-11-19T02:29:20;97807.41;;;10.14
64394;BMP280;50712;49.506;10.400;2023-11-19T02:29:50;97810.13;;;10.14
64394;BMP280;50712;49.506;10.400;2023-11-19T02:30:21;97812.13;;;10.13
64394;BMP280;50712;49.506;10.400;2023-11-19T02:30:56;97810.13;;;10.14
64394;BMP280;50712;49.506;10.400;2023-11-19T02:31:26;97804.69;;;10.14
64394;BMP280;50712;49.506;10.400;2023-11-19T02:31:57;97800.00;;;10.14
64394;BMP280;50712;49.506;10.400;2023-11-19T02:32:27;97798.06;;;10.15
64394;BMP280;50712;49.506;10.400;2023-11-19T02:33:00;97795.31;;;10.15
64394;BMP280;50712;49.506;10.400;2023-11-19T02:33:35;97794.56;;;10.14
64394;BMP280;50712;49.506;10.400;2023-11-19T02:34:06;97793.38;;;10.15
64394;BMP280;50712;49.506;10.400;2023-11-19T02:34:37;97793.38;;;10.15
64394;BMP280;50712;49.506;10.400;2023-11-19T02:35:07;97790.66;;;10.15
64394;BMP280;50712;49.506;10.400;2023-11-19T02:35:41;97795.31;;;10.15
64394;BMP280;50712;49.506;10.400;2023-11-19T02:36:11;97789.13;;;10.14
64394;BMP280;50712;49.506;10.400;2023-11-19T02:36:42;97790.66;;;10.15
64394;BMP280;50712;49.506;10.400;2023-11-19T02:37:12;97785.97;;;10.16
64394;BMP280;50712;49.506;10.400;2023-11-19T02:37:44;97795.31;;;10.15
64394;BMP280;50712;49.506;10.400;2023-11-19T02:38:15;97794.91;;;10.16
64394;BMP280;50712;49.506;10.400;2023-11-19T02:38:45;97789.88;;;10.15
64394;BMP280;50712;49.506;10.400;2023-11-19T02:39:15;97799.59;;;10.16
64394;BMP280;50712;49.506;10.400;2023-11-19T02:39:51;97791.84;;;10.14
64394;BMP280;50712;49.506;10.400;2023-11-19T02:40:21;97795.31;;;10.15
64394;BMP280;50712;49.506;10.400;2023-11-19T02:40:54;97794.56;;;10.14
64394;BMP280;50712;49.506;10.400;2023-11-19T02:41:24;97795.31;;;10.15
64394;BMP280;50712;49.506;10.400;2023-11-19T02:41:54;97798.06;;;10.15
64394;BMP280;50712;49.506;10.400;2023-11-19T02:42:25;97798.81;;;10.15
64394;BMP280;50712;49.506;10.400;2023-11-19T02:42:55;97798.06;;;10.15
64394;BMP280;50712;49.506;10.400;2023-11-19T02:43:25;97796.84;;;10.16
64394;BMP280;50712;49.506;10.400;2023-11-19T02:43:56;97794.91;;;10.16
64394;BMP280;50712;49.506;10.400;2023-11-19T02:44:26;97801.53;;;10.15
64394;BMP280;50712;49.506;10.400;2023-11-19T02:45:00;97799.59;;;10.16
64394;BMP280;50712;49.506;10.400;2023-11-19T02:45:30;97789.88;;;10.15
64394;BMP280;50712;49.506;10.400;2023-11-19T02:46:04;97794.91;;;10.16
64394;BMP280;50712;49.506;10.400;2023-11-19T02:46:38;97796.09;;;10.15
64394;BMP280;50712;49.506;10.400;2023-11-19T02:47:12;97803.06;;;10.16
64394;BMP280;50712;49.506;10.400;2023-11-19T02:47:42;97800.34;;;10.16
64394;BMP280;50712;49.506;10.400;2023-11-19T02:48:14;97801.53;;;10.15
64394;BMP280;50712;49.506;10.400;2023-11-19T02:48:45;97797.63;;;10.16
64394;BMP280;50712;49.506;10.400;2023-11-19T02:49:16;97804.56;;;10.17
64394;BMP280;50712;49.506;10.400;2023-11-19T02:49:46;97804.56;;;10.17
64394;BMP280;50712;49.506;10.400;2023-11-19T02:50:17;97801.09;;;10.17
64394;BMP280;50712;49.506;10.400;2023-11-19T02:50:54;97801.41;;;10.19
64394;BMP280;50712;49.506;10.400;2023-11-19T02:51:28;97806.09;;;10.18
64394;BMP280;50712;49.506;10.400;2023-11-19T02:52:00;97801.84;;;10.17
64394;BMP280;50712;49.506;10.400;2023-11-19T02:52:30;97797.16;;;10.18
64394;BMP280;50712;49.506;10.400;2023-11-19T02:53:05;97802.91;;;10.20
64394;BMP280;50712;49.506;10.400;2023-11-19T02:53:36;97793.25;;;10.19
64394;BMP280;50712;49.506;10.400;2023-11-19T02:54:07;97792.03;;;10.20
64394;BMP280;50712;49.506;10.400;2023-11-19T02:54:38;97791.28;;;10.19
64394;BMP280;50712;49.506;10.400;2023-11-19T02:55:10;97792.03;;;10.20
64394;BMP280;50712;49.506;10.400;2023-11-19T02:55:43;97798.97;;;10.21
64394;BMP280;50712;49.506;10.400;2023-11-19T02:56:18;97793.53;;;10.21
64394;BMP280;50712;49.506;10.400;2023-11-19T02:56:59;97799.75;;;10.21
64394;BMP280;50712;49.506;10.400;2023-11-19T02:57:31;97792.34;;;10.22
64394;BMP280;50712;49.506;10.400;2023-11-19T02:58:02;97797.78;;;10.22
64394;BMP280;50712;49.506;10.400;2023-11-19T02:58:38;97799.31;;;10.23
64394;BMP280;50712;49.506;10.400;2023-11-19T02:59:09;97782.22;;;10.22
64394;BMP280;50712;49.506;10.400;2023-11-19T02:59:50;97786.44;;;10.23
64394;BMP280;50712;49.506;10.400;2023-11-19T03:00:21;97786.44;;;10.23